createdAt,value
2019-05-22T00:02:34.494Z,32.84
2019-05-22T00:07:42.302Z,35.74
2019-05-22T00:12:50.145Z,28.03
2019-05-22T00:17:57.988Z,32.83
2019-05-22T00:23:05.649Z,31.45
2019-05-22T00:28:13.174Z,36.61
2019-05-22T00:33:20.862Z,34.17
2019-05-22T00:38:28.625Z,33.64
2019-05-22T00:43:36.456Z,34.52
2019-05-22T00:48:44.219Z,39.13
2019-05-22T00:53:51.886Z,38.54
2019-05-22T00:58:59.501Z,35.63
2019-05-22T01:04:07.305Z,37.63
2019-05-22T01:09:15.109Z,35.54
2019-05-22T01:14:23.206Z,34.43
2019-05-22T01:19:31.016Z,36.03
2019-05-22T01:24:38.744Z,36.70
2019-05-22T01:29:46.363Z,38.23
2019-05-22T01:34:54.024Z,36.80
2019-05-22T01:40:01.700Z,34.78
2019-05-22T01:45:09.261Z,35.10
2019-05-22T01:50:16.839Z,36.08
2019-05-22T01:55:24.478Z,29.77
2019-05-22T02:00:32.295Z,31.93
2019-05-22T02:05:39.958Z,32.32
2019-05-22T02:10:48.665Z,35.56
2019-05-22T02:15:56.375Z,29.97
2019-05-22T02:21:04.221Z,26.41
2019-05-22T02:26:12.196Z,27.35
2019-05-22T02:31:19.837Z,32.69
2019-05-22T02:36:28.679Z,36.82
2019-05-22T02:41:38.313Z,33.66
2019-05-22T02:46:47.699Z,29.35
2019-05-22T02:51:55.517Z,27.98
2019-05-22T02:57:04.816Z,29.77
2019-05-22T03:02:12.991Z,30.38
2019-05-22T03:07:20.632Z,28.27
2019-05-22T03:12:28.337Z,28.53
2019-05-22T03:17:35.890Z,28.06
2019-05-22T03:22:43.692Z,31.48
2019-05-22T03:27:51.356Z,29.78
2019-05-22T03:32:59.301Z,29.52
2019-05-22T03:38:07.213Z,32.34
2019-05-22T03:43:14.909Z,28.00
2019-05-22T03:48:22.752Z,27.84
2019-05-22T03:53:30.569Z,28.62
2019-05-22T03:58:38.156Z,29.28
2019-05-22T04:03:46.129Z,32.05
2019-05-22T04:08:55.034Z,30.38
2019-05-22T04:14:02.708Z,31.83
2019-05-22T04:19:12.359Z,34.87
2019-05-22T04:24:20.227Z,27.05
2019-05-22T04:29:28.030Z,30.12
2019-05-22T04:34:36.145Z,26.93
2019-05-22T04:39:43.779Z,22.28
2019-05-22T04:44:51.855Z,23.52
2019-05-22T04:50:07.602Z,21.22
2019-05-22T04:55:07.100Z,20.55
2019-05-22T05:00:14.757Z,22.90
2019-05-22T05:05:22.521Z,22.03
2019-05-22T05:10:31.469Z,16.86
2019-05-22T05:15:40.012Z,17.33
2019-05-22T05:20:47.814Z,15.93
2019-05-22T05:25:55.516Z,18.92
2019-05-22T05:31:03.514Z,20.74
2019-05-22T05:36:11.241Z,17.94
2019-05-22T05:41:18.872Z,19.13
2019-05-22T05:46:26.612Z,15.81
2019-05-22T05:51:34.398Z,16.07
2019-05-22T05:56:42.197Z,16.36
2019-05-22T06:01:50.417Z,15.69
2019-05-22T06:07:00.754Z,13.07
2019-05-22T06:12:06.397Z,13.08
2019-05-22T06:17:14.238Z,14.92
2019-05-22T06:22:22.034Z,13.23
2019-05-22T06:27:30.033Z,16.35
2019-05-22T06:32:37.934Z,12.91
2019-05-22T06:37:46.084Z,13.84
2019-05-22T06:42:54.438Z,13.09
2019-05-22T06:48:02.325Z,16.01
2019-05-22T06:53:10.518Z,16.46
2019-05-22T06:58:18.472Z,15.30
2019-05-22T07:03:26.405Z,15.38
2019-05-22T07:08:34.271Z,12.69
2019-05-22T07:13:42.311Z,10.53
2019-05-22T07:18:50.487Z,12.69
2019-05-22T07:23:58.757Z,10.81
2019-05-22T07:29:07.811Z,14.06
2019-05-22T07:34:15.847Z,12.01
2019-05-22T07:39:23.875Z,11.29
2019-05-22T07:44:32.368Z,12.87
2019-05-22T07:49:40.144Z,10.78
2019-05-22T07:54:48.117Z,10.84
2019-05-22T07:59:58.243Z,9.58
2019-05-22T08:04:55.942Z,10.94
2019-05-22T08:10:03.922Z,9.97
2019-05-22T08:15:11.613Z,9.23
2019-05-22T08:20:19.649Z,11.91
2019-05-22T08:25:27.711Z,13.72
2019-05-22T08:30:37.000Z,10.12
2019-05-22T08:35:45.397Z,10.95
2019-05-22T08:40:53.391Z,11.05
2019-05-22T08:46:01.608Z,11.50
2019-05-22T08:51:09.509Z,10.50
2019-05-22T08:56:18.392Z,10.86
2019-05-22T09:01:25.070Z,13.29
2019-05-22T09:06:37.337Z,8.18
2019-05-22T09:11:35.401Z,10.41
2019-05-22T09:16:43.504Z,8.99
2019-05-22T09:21:51.370Z,9.28
2019-05-22T09:27:02.757Z,8.80
2019-05-22T09:32:07.020Z,12.78
2019-05-22T09:37:14.881Z,9.44
2019-05-22T09:42:23.325Z,8.16
2019-05-22T09:47:31.367Z,9.82
2019-05-22T09:52:39.254Z,7.20
2019-05-22T09:57:47.284Z,6.54
2019-05-22T10:02:55.031Z,5.99
2019-05-22T10:08:02.933Z,5.98
2019-05-22T10:13:10.794Z,6.78
2019-05-22T10:18:18.647Z,8.32
2019-05-22T10:23:28.622Z,5.65
2019-05-22T10:28:36.718Z,7.78
2019-05-22T10:33:44.881Z,6.97
2019-05-22T10:38:52.588Z,7.22
2019-05-22T10:44:00.449Z,6.86
2019-05-22T10:49:08.494Z,8.53
2019-05-22T10:54:16.245Z,5.22
2019-05-22T10:59:24.043Z,6.94
2019-05-22T11:04:32.025Z,5.60
2019-05-22T11:09:40.157Z,7.02
2019-05-22T11:14:49.553Z,7.33
2019-05-22T11:19:58.936Z,5.56
2019-05-22T11:25:07.728Z,5.88
2019-05-22T11:30:15.592Z,4.21
2019-05-22T11:35:23.673Z,6.81
2019-05-22T11:40:34.640Z,5.46
2019-05-22T11:45:32.372Z,3.65
2019-05-22T11:50:41.683Z,3.39
2019-05-22T11:55:49.702Z,3.98
2019-05-22T12:00:57.762Z,4.78
2019-05-22T12:06:05.647Z,2.57
2019-05-22T12:11:13.494Z,4.55
2019-05-22T12:16:21.494Z,6.00
2019-05-22T12:21:29.655Z,6.48
2019-05-22T12:26:37.687Z,6.42
2019-05-22T12:31:49.627Z,6.45
2019-05-22T12:36:50.990Z,6.08
2019-05-22T12:41:55.095Z,5.92
2019-05-22T12:47:03.265Z,10.31
2019-05-22T12:52:11.376Z,5.32
2019-05-22T12:57:19.544Z,5.35
2019-05-22T13:02:27.659Z,6.49
2019-05-22T13:07:35.839Z,5.17
2019-05-22T13:12:43.495Z,5.21
2019-05-22T13:17:51.432Z,5.92
2019-05-22T13:22:59.371Z,3.80
2019-05-22T13:28:07.056Z,3.98
2019-05-22T13:33:14.834Z,2.92
2019-05-22T13:38:22.996Z,4.57
2019-05-22T13:43:31.149Z,2.96
2019-05-22T13:48:39.091Z,3.51
2019-05-22T13:53:46.865Z,5.24
2019-05-22T13:58:54.840Z,3.30
2019-05-22T14:04:02.719Z,3.42
2019-05-22T14:09:10.601Z,3.76
2019-05-22T14:14:18.511Z,3.68
2019-05-22T14:19:26.474Z,4.53
2019-05-22T14:24:35.430Z,3.63
2019-05-22T14:29:44.049Z,4.96
2019-05-22T14:34:51.787Z,3.72
2019-05-22T14:40:00.941Z,2.74
2019-05-22T14:45:06.780Z,10.45
2019-05-22T14:50:14.546Z,4.18
2019-05-22T14:55:22.363Z,4.41
2019-05-22T15:00:29.978Z,4.93
2019-05-22T15:05:37.653Z,6.17
2019-05-22T15:10:45.494Z,3.00
2019-05-22T15:15:53.162Z,3.51
2019-05-22T15:21:01.059Z,3.00
2019-05-22T15:26:08.778Z,5.17
2019-05-22T15:31:16.804Z,3.81
2019-05-22T15:36:24.492Z,4.09
2019-05-22T15:41:32.176Z,4.06
2019-05-22T15:46:39.989Z,3.17
2019-05-22T15:51:47.806Z,5.38
2019-05-22T15:56:55.438Z,4.18
2019-05-22T16:02:03.174Z,4.37
2019-05-22T16:07:11.763Z,4.38
2019-05-22T16:12:21.070Z,4.56
2019-05-22T16:17:28.655Z,4.22
2019-05-22T16:22:36.504Z,3.51
2019-05-22T16:27:44.249Z,3.66
2019-05-22T16:32:52.006Z,4.94
2019-05-22T16:37:59.724Z,4.73
2019-05-22T16:43:07.511Z,5.48
2019-05-22T16:48:27.689Z,4.22
2019-05-22T16:53:22.443Z,3.91
2019-05-22T16:58:30.104Z,4.57
2019-05-22T17:03:37.963Z,4.91
2019-05-22T17:08:45.789Z,5.00
2019-05-22T17:13:54.469Z,5.58
2019-05-22T17:19:02.089Z,5.99
2019-05-22T17:24:09.918Z,6.39
2019-05-22T17:29:17.591Z,6.25
2019-05-22T17:34:25.587Z,4.95
2019-05-22T17:39:33.082Z,4.96
2019-05-22T17:44:41.005Z,5.57
2019-05-22T17:49:49.056Z,10.19
2019-05-22T17:54:56.978Z,7.22
2019-05-22T18:00:04.576Z,6.27
2019-05-22T18:05:12.183Z,5.79
2019-05-22T18:10:19.823Z,5.07
2019-05-22T18:15:27.481Z,8.85
2019-05-22T18:20:43.395Z,7.78
2019-05-22T18:25:42.473Z,7.41
2019-05-22T18:30:50.246Z,8.40
2019-05-22T18:35:58.031Z,7.95
2019-05-22T18:41:06.230Z,8.32
2019-05-22T18:46:13.859Z,8.13
2019-05-22T18:51:21.709Z,7.52
2019-05-22T18:56:29.343Z,8.27
2019-05-22T19:01:37.209Z,6.85
2019-05-22T19:06:44.887Z,7.43
2019-05-22T19:11:52.581Z,8.22
2019-05-22T19:17:00.487Z,10.15
2019-05-22T19:22:08.235Z,7.96
2019-05-22T19:27:15.890Z,10.20
2019-05-22T19:32:24.438Z,8.90
2019-05-22T19:37:32.242Z,8.46
2019-05-22T19:42:39.945Z,8.80
2019-05-22T19:47:47.745Z,10.62
2019-05-22T19:52:55.545Z,9.03
2019-05-22T19:58:04.009Z,9.32
2019-05-22T20:03:11.702Z,9.58
2019-05-22T20:08:19.372Z,10.28
2019-05-22T20:13:27.098Z,12.18
2019-05-22T20:18:34.755Z,10.76
2019-05-22T20:23:42.361Z,10.39
2019-05-22T20:28:50.607Z,10.46
2019-05-22T20:33:58.706Z,10.42
2019-05-22T20:39:06.465Z,10.62
2019-05-22T20:44:14.298Z,10.96
2019-05-22T20:49:22.205Z,12.55
2019-05-22T20:54:30.237Z,10.04
2019-05-22T20:59:37.885Z,11.17
2019-05-22T21:04:45.732Z,12.89
2019-05-22T21:09:53.362Z,12.12
2019-05-22T21:15:01.161Z,10.95
2019-05-22T21:20:08.818Z,12.64
2019-05-22T21:25:16.734Z,13.84
2019-05-22T21:30:24.371Z,14.69
2019-05-22T21:35:32.033Z,12.85
2019-05-22T21:40:42.148Z,14.22
2019-05-22T21:45:40.151Z,14.90
2019-05-22T21:50:47.904Z,16.12
2019-05-22T21:56:04.819Z,14.59
2019-05-22T22:01:04.022Z,16.86
2019-05-22T22:06:11.815Z,15.44
2019-05-22T22:11:19.541Z,16.83
2019-05-22T22:16:27.291Z,15.63
2019-05-22T22:21:35.077Z,15.56
2019-05-22T22:26:42.936Z,15.72
2019-05-22T22:31:50.705Z,16.39
2019-05-22T22:36:58.392Z,15.86
2019-05-22T22:42:06.237Z,16.79
2019-05-22T22:47:13.821Z,16.81
2019-05-22T22:52:21.477Z,18.60
2019-05-22T22:57:29.049Z,16.10
2019-05-22T23:02:36.797Z,17.87
2019-05-22T23:07:44.572Z,17.40
2019-05-22T23:12:52.262Z,18.19
2019-05-22T23:18:00.042Z,18.04
2019-05-22T23:23:07.614Z,18.84
2019-05-22T23:28:15.306Z,18.35
2019-05-22T23:33:22.975Z,18.85
2019-05-22T23:38:30.634Z,17.61
2019-05-22T23:43:38.673Z,20.66
2019-05-22T23:48:46.541Z,18.19
2019-05-22T23:53:54.159Z,19.62
2019-05-22T23:59:02.044Z,20.01
